Time;durP1;ratioP1;P1;durP2;ratioP2;P2;SDS_P1;SDS_P2;PMS_P1;PMS_P2;Temp;Humidity;BMP_temperature;BMP_pressure;BME280_temperature;BME280_humidity;BME280_pressure;Samples;Min_cycle;Max_cycle;Signal;HPM_P1;HPM_P2
2022/08/16 00:01:56;;;;;;;0.00;0.00;;;20.90;99.90;;;;;;5003301;28;20046;-80
2022/08/16 00:04:26;;;;;;;0.00;0.00;;;20.60;99.90;;;;;;5011749;28;20053;-81
2022/08/16 00:06:54;;;;;;;0.00;0.00;;;20.50;99.90;;;;;;4998121;28;20057;-81
2022/08/16 00:09:21;;;;;;;0.00;0.00;;;20.70;99.90;;;;;;4996864;28;20058;-80
2022/08/16 00:11:49;;;;;;;0.00;0.00;;;21.20;99.90;;;;;;4992645;28;20121;-79
2022/08/16 00:14:24;;;;;;;0.00;0.00;;;20.50;99.90;;;;;;4995458;28;20035;-80
2022/08/16 00:16:58;;;;;;;0.00;0.00;;;20.40;99.90;;;;;;4996065;28;20027;-80
2022/08/16 00:19:44;;;;;;;0.00;0.00;;;20.40;99.90;;;;;;4995728;28;20054;-80
2022/08/16 00:22:11;;;;;;;0.00;0.00;;;20.40;99.90;;;;;;4995010;28;20042;-79
2022/08/16 00:24:39;;;;;;;0.00;0.00;;;20.30;99.90;;;;;;5010214;28;20049;-80
2022/08/16 00:27:10;;;;;;;0.00;0.00;;;20.30;99.90;;;;;;5007855;28;20049;-83
2022/08/16 00:29:37;;;;;;;0.00;0.00;;;20.30;99.90;;;;;;4994326;28;20030;-81
2022/08/16 00:32:07;;;;;;;0.00;0.00;;;20.20;99.90;;;;;;4994705;28;20043;-82
2022/08/16 00:34:37;;;;;;;0.00;0.00;;;20.20;99.90;;;;;;4999107;28;20054;-79
2022/08/16 00:37:19;;;;;;;0.00;0.00;;;20.20;99.90;;;;;;4992904;28;20046;-80
2022/08/16 00:39:47;;;;;;;0.00;0.00;;;20.10;99.90;;;;;;5001950;28;20118;-80
2022/08/16 00:42:24;;;;;;;0.00;0.00;;;20.10;99.90;;;;;;5008336;28;20050;-81
2022/08/16 00:45:01;;;;;;;0.00;0.00;;;20.10;99.90;;;;;;4995357;28;20041;-79
2022/08/16 00:47:37;;;;;;;0.00;0.00;;;20.10;99.90;;;;;;4989852;28;20047;-80
2022/08/16 00:50:05;;;;;;;0.00;0.00;;;20.00;99.90;;;;;;5011415;28;20034;-82
2022/08/16 00:52:38;;;;;;;0.00;0.00;;;20.00;99.90;;;;;;4998550;28;20027;-82
2022/08/16 00:55:18;;;;;;;;;;;20.00;99.90;;;;;;4986697;28;20031;-79
2022/08/16 00:57:48;;;;;;;0.00;0.00;;;19.90;99.90;;;;;;4991754;28;19921;-81
2022/08/16 01:00:28;;;;;;;0.00;0.00;;;20.30;99.90;;;;;;5007617;28;20043;-80
2022/08/16 01:02:59;;;;;;;;;;;19.80;99.90;;;;;;5004351;28;20057;-80
2022/08/16 01:05:26;;;;;;;0.00;0.00;;;22.00;99.90;;;;;;4994307;28;19930;-79
2022/08/16 01:07:53;;;;;;;0.00;0.00;;;19.90;99.90;;;;;;4992490;28;20023;-80
2022/08/16 01:10:22;;;;;;;0.00;0.00;;;19.80;99.90;;;;;;4995876;28;20046;-79
2022/08/16 01:13:04;;;;;;;0.00;0.00;;;19.80;99.90;;;;;;4996573;28;20039;-81
2022/08/16 01:15:33;;;;;;;0.00;0.00;;;20.70;99.90;;;;;;5013354;28;20031;-80
2022/08/16 01:18:03;;;;;;;0.00;0.00;;;19.70;99.90;;;;;;4992978;28;20023;-82
2022/08/16 01:20:36;;;;;;;0.00;0.00;;;19.60;99.90;;;;;;4991563;28;20097;-79
2022/08/16 01:23:10;;;;;;;0.00;0.00;;;20.30;99.90;;;;;;4995714;28;20030;-80
2022/08/16 01:25:43;;;;;;;0.05;0.05;;;20.40;99.90;;;;;;4993945;28;20031;-81
2022/08/16 01:28:27;;;;;;;0.00;0.00;;;21.20;99.90;;;;;;4993151;28;20049;-81
2022/08/16 01:30:58;;;;;;;0.00;0.00;;;19.70;99.90;;;;;;5010934;28;20039;-80
2022/08/16 01:33:25;;;;;;;0.00;0.00;;;19.70;99.90;;;;;;4996190;28;20062;-80
2022/08/16 01:36:05;;;;;;;0.00;0.00;;;20.70;99.90;;;;;;4996475;28;20031;-80
2022/08/16 01:38:40;;;;;;;0.00;0.00;;;19.70;99.90;;;;;;5005572;28;20043;-80
2022/08/16 01:41:29;;;;;;;0.00;0.00;;;21.10;99.90;;;;;;4990050;28;20053;-81
2022/08/16 01:43:57;;;;;;;0.00;0.00;;;19.70;99.90;;;;;;5006878;28;20035;-82
2022/08/16 01:46:30;;;;;;;0.00;0.00;;;19.70;99.90;;;;;;4993051;28;20027;-79
2022/08/16 01:49:09;;;;;;;0.00;0.00;;;19.60;99.90;;;;;;4991857;28;20148;-79
2022/08/16 01:51:57;;;;;;;0.00;0.00;;;19.60;99.90;;;;;;4992235;28;20213;-80
2022/08/16 01:54:24;;;;;;;0.00;0.00;;;19.60;99.90;;;;;;5014649;28;20069;-79
2022/08/16 01:56:59;;;;;;;0.00;0.00;;;19.60;99.90;;;;;;4991046;28;20067;-79
2022/08/16 01:59:27;;;;;;;0.00;0.00;;;19.70;99.90;;;;;;5009581;28;20746;-81
2022/08/16 02:01:54;;;;;;;0.00;0.00;;;19.60;99.90;;;;;;5008341;28;20045;-81
2022/08/16 02:04:27;;;;;;;0.00;0.00;;;19.50;99.90;;;;;;4993452;28;20049;-82
2022/08/16 02:07:17;;;;;;;0.00;0.00;;;19.60;99.90;;;;;;4992692;28;20073;-81
2022/08/16 02:09:46;;;;;;;0.00;0.00;;;19.60;99.90;;;;;;5005010;28;20039;-82
2022/08/16 02:12:27;;;;;;;0.00;0.00;;;19.50;99.90;;;;;;4998146;28;20038;-81
2022/08/16 02:15:15;;;;;;;0.00;0.00;;;19.40;99.90;;;;;;4990682;28;20035;-79
2022/08/16 02:17:42;;;;;;;0.00;0.00;;;19.50;99.90;;;;;;5003036;28;20038;-81
2022/08/16 02:20:11;;;;;;;0.00;0.00;;;19.40;99.90;;;;;;5005511;28;20063;-78
2022/08/16 02:22:38;;;;;;;0.00;0.00;;;19.40;99.90;;;;;;4995183;28;20030;-82
2022/08/16 02:25:08;;;;;;;0.00;0.00;;;19.50;99.90;;;;;;4993832;28;20026;-80
2022/08/16 02:27:38;;;;;;;0.00;0.00;;;19.50;99.90;;;;;;5002991;28;20058;-82
2022/08/16 02:30:13;;;;;;;0.00;0.00;;;19.50;99.90;;;;;;5006166;28;20043;-81
2022/08/16 02:33:00;;;;;;;0.00;0.00;;;19.50;99.90;;;;;;4989941;28;20102;-79
2022/08/16 02:35:29;;;;;;;0.00;0.00;;;;;;;;;;4992732;28;20057;-80
2022/08/16 02:37:57;;;;;;;0.00;0.00;;;19.60;99.90;;;;;;5009295;28;20039;-80
2022/08/16 02:40:34;;;;;;;0.00;0.00;;;19.50;99.90;;;;;;4989543;28;20050;-81
2022/08/16 02:43:04;;;;;;;0.00;0.00;;;19.50;99.90;;;;;;4992128;28;20085;-78
2022/08/16 02:45:31;;;;;;;0.00;0.00;;;19.50;99.90;;;;;;5004023;28;20078;-80
2022/08/16 02:47:58;;;;;;;0.00;0.00;;;19.50;99.90;;;;;;5007617;28;20045;-79
2022/08/16 02:50:45;;;;;;;0.00;0.00;;;19.50;99.90;;;;;;5006329;28;20054;-81
2022/08/16 02:53:33;;;;;;;0.00;0.00;;;19.50;99.90;;;;;;4991520;28;20141;-79
2022/08/16 02:56:00;;;;;;;0.00;0.00;;;19.50;99.90;;;;;;4996584;28;20027;-80
2022/08/16 02:58:32;;;;;;;0.00;0.00;;;19.50;99.90;;;;;;4994135;28;20074;-80
2022/08/16 03:01:00;;;;;;;0.00;0.00;;;19.50;99.90;;;;;;4992337;28;20022;-80
2022/08/16 03:03:27;;;;;;;0.00;0.00;;;19.50;99.90;;;;;;5012389;28;20037;-82
2022/08/16 03:06:18;;;;;;;0.00;0.00;;;19.50;99.90;;;;;;5011115;28;20051;-81
2022/08/16 03:09:04;;;;;;;0.00;0.00;;;20.60;99.90;;;;;;4994292;28;20058;-81
2022/08/16 03:11:31;;;;;;;0.00;0.00;;;20.20;99.90;;;;;;4997732;28;20049;-81
2022/08/16 03:14:02;;;;;;;;;;;19.70;99.90;;;;;;4997651;28;20026;-80
2022/08/16 03:16:34;;;;;;;0.00;0.00;;;19.50;99.90;;;;;;4991744;28;19910;-82
2022/08/16 03:19:08;;;;;;;0.00;0.00;;;19.50;99.90;;;;;;4999317;28;20030;-80
2022/08/16 03:21:36;;;;;;;0.00;0.00;;;19.50;99.90;;;;;;4999015;28;20055;-83
2022/08/16 03:24:05;;;;;;;0.00;0.00;;;19.50;99.90;;;;;;4993411;28;20067;-79
2022/08/16 03:26:52;;;;;;;0.00;0.00;;;19.60;99.90;;;;;;4993975;28;20057;-80
2022/08/16 03:29:20;;;;;;;0.00;0.00;;;19.70;99.90;;;;;;4994542;28;20051;-80
2022/08/16 03:31:50;;;;;;;0.00;0.00;;;19.60;99.90;;;;;;4997621;28;20051;-82
2022/08/16 03:34:18;;;;;;;0.00;0.00;;;;;;;;;;5009087;28;20324;-81
2022/08/16 03:36:46;;;;;;;0.00;0.00;;;19.50;99.90;;;;;;4994092;28;20053;-81
2022/08/16 03:39:13;;;;;;;0.00;0.00;;;19.50;99.90;;;;;;4992327;28;20049;-81
2022/08/16 03:41:46;;;;;;;0.00;0.00;;;20.80;99.90;;;;;;5012337;28;20054;-81
2022/08/16 03:44:17;;;;;;;0.00;0.00;;;19.50;99.90;;;;;;5006655;28;20062;-82
2022/08/16 03:47:05;;;;;;;0.00;0.00;;;19.60;99.90;;;;;;4996509;28;20033;-81
2022/08/16 03:49:36;;;;;;;0.00;0.00;;;22.30;99.90;;;;;;4992331;28;20050;-80
2022/08/16 03:52:04;;;;;;;0.00;0.00;;;19.70;99.90;;;;;;4997252;28;20035;-80
2022/08/16 03:54:32;;;;;;;0.00;0.00;;;19.60;99.90;;;;;;4998822;28;20058;-80
2022/08/16 03:57:01;;;;;;;0.00;0.00;;;22.00;99.90;;;;;;4995556;28;20063;-81
2022/08/16 03:59:31;;;;;;;0.00;0.00;;;19.60;99.90;;;;;;5001032;28;20026;-80
2022/08/16 04:01:59;;;;;;;0.00;0.00;;;19.50;99.90;;;;;;4994819;28;20333;-80
2022/08/16 04:04:28;;;;;;;0.00;0.00;;;19.80;99.90;;;;;;4997463;28;20101;-80
2022/08/16 04:07:00;;;;;;;0.00;0.00;;;19.50;99.90;;;;;;4997937;28;20037;-80
2022/08/16 04:09:29;;;;;;;;;;;19.50;99.90;;;;;;5006457;28;20037;-81
2022/08/16 04:12:00;;;;;;;0.00;0.00;;;19.60;99.90;;;;;;5012227;28;19909;-80
2022/08/16 04:14:28;;;;;;;0.00;0.00;;;18.10;99.90;;;;;;4993994;28;20035;-84
2022/08/16 04:16:59;;;;;;;0.00;0.00;;;19.60;99.90;;;;;;4995714;28;20054;-81
2022/08/16 04:19:29;;;;;;;0.00;0.00;;;19.50;99.90;;;;;;4990633;28;20027;-81
2022/08/16 04:21:57;;;;;;;0.00;0.00;;;19.60;99.90;;;;;;5010678;28;20047;-80
2022/08/16 04:24:27;;;;;;;0.00;0.00;;;19.50;99.90;;;;;;4992871;28;20054;-81
2022/08/16 04:26:54;;;;;;;0.00;0.00;;;19.50;99.90;;;;;;4990495;28;20024;-80
2022/08/16 04:29:21;;;;;;;0.00;0.00;;;19.50;99.90;;;;;;4991739;28;20047;-82
2022/08/16 04:31:51;;;;;;;0.00;0.00;;;19.60;99.90;;;;;;4995135;28;20045;-80
2022/08/16 04:34:25;;;;;;;0.00;0.00;;;19.50;99.90;;;;;;4995515;28;20616;-79
2022/08/16 04:36:54;;;;;;;0.00;0.00;;;19.50;99.90;;;;;;4991500;28;20047;-82
2022/08/16 04:39:22;;;;;;;0.00;0.00;;;21.20;99.90;;;;;;4992988;28;20062;-82
2022/08/16 04:41:50;;;;;;;0.00;0.00;;;19.50;99.90;;;;;;5008259;28;20049;-81
2022/08/16 04:44:23;;;;;;;0.00;0.00;;;19.50;99.90;;;;;;5005820;28;20039;-82
2022/08/16 04:47:10;;;;;;;0.00;0.00;;;19.60;99.90;;;;;;4995681;28;20111;-80
2022/08/16 04:49:50;;;;;;;;;;;19.60;99.90;;;;;;4994164;28;20027;-80
2022/08/16 04:52:20;;;;;;;0.00;0.00;;;19.60;99.90;;;;;;4994858;28;19922;-81
2022/08/16 04:55:04;;;;;;;0.00;0.00;;;20.60;99.90;;;;;;4989685;28;20050;-81
2022/08/16 04:57:32;;;;;;;0.00;0.00;;;19.50;99.90;;;;;;4994564;28;20054;-81
2022/08/16 04:59:59;;;;;;;0.00;0.00;;;19.50;99.90;;;;;;4991766;28;20031;-80
2022/08/16 05:02:49;;;;;;;0.00;0.00;;;21.30;99.90;;;;;;4993474;28;20074;-82
2022/08/16 05:05:22;;;;;;;0.00;0.00;;;19.50;99.90;;;;;;4992488;28;20098;-80
2022/08/16 05:15:35;;;;;;;0.00;0.00;;;19.50;99.90;;;;;;4968376;28;20043;-84
2022/08/16 05:18:02;;;;;;;0.00;0.00;;;19.60;99.90;;;;;;4970197;28;20043;-84
2022/08/16 05:20:29;;;;;;;0.00;0.00;;;19.60;99.90;;;;;;4967131;28;20039;-83
2022/08/16 05:23:10;;;;;;;0.00;0.00;;;19.60;99.90;;;;;;4963944;28;20423;-83
2022/08/16 05:25:39;;;;;;;0.00;0.00;;;19.70;99.90;;;;;;4971234;28;20035;-82
2022/08/16 05:28:15;;;;;;;0.00;0.00;;;19.60;99.90;;;;;;4969717;28;20038;-82
2022/08/16 05:30:44;;;;;;;0.00;0.00;;;19.60;99.90;;;;;;4969785;28;20049;-82
2022/08/16 05:33:15;;;;;;;0.00;0.00;;;19.70;99.90;;;;;;4962529;28;20055;-82
2022/08/16 05:35:44;;;;;;;0.00;0.00;;;19.80;99.90;;;;;;4988575;28;20066;-83
2022/08/16 05:38:26;;;;;;;0.00;0.00;;;19.80;99.90;;;;;;4972950;28;20051;-83
2022/08/16 05:41:05;;;;;;;0.00;0.00;;;19.80;99.90;;;;;;4969178;28;20070;-83
2022/08/16 05:43:32;;;;;;;0.00;0.00;;;19.80;99.90;;;;;;4969841;28;20041;-83
2022/08/16 05:46:16;;;;;;;;;;;19.80;99.90;;;;;;4972968;28;20051;-82
2022/08/16 05:48:56;;;;;;;0.00;0.00;;;19.90;99.90;;;;;;4973845;28;19922;-82
2022/08/16 05:51:32;;;;;;;0.00;0.00;;;19.80;99.90;;;;;;4973106;28;20407;-82
2022/08/16 05:54:05;;;;;;;0.00;0.00;;;19.80;99.90;;;;;;4972429;28;20046;-83
2022/08/16 05:56:32;;;;;;;0.00;0.00;;;19.80;99.90;;;;;;4969836;28;20050;-83
2022/08/16 05:59:03;;;;;;;0.00;0.00;;;19.90;99.90;;;;;;4972088;28;20050;-82
2022/08/16 06:01:34;;;;;;;0.00;0.00;;;19.90;99.90;;;;;;4970006;28;20050;-82
2022/08/16 06:04:05;;;;;;;0.00;0.00;;;20.00;99.90;;;;;;4967216;28;20043;-83
2022/08/16 06:06:51;;;;;;;0.00;0.00;;;20.10;99.90;;;;;;4971840;28;20058;-82
2022/08/16 06:09:24;;;;;;;0.00;0.00;;;20.20;99.90;;;;;;4969525;28;20054;-82
2022/08/16 06:12:09;;;;;;;0.00;0.00;;;20.20;99.90;;;;;;4972469;28;20055;-84
2022/08/16 06:14:36;;;;;;;0.00;0.00;;;20.20;99.90;;;;;;4968128;28;20043;-82
2022/08/16 06:17:07;;;;;;;0.00;0.00;;;20.30;99.90;;;;;;4967515;28;20070;-84
2022/08/16 06:19:38;;;;;;;0.00;0.00;;;20.30;99.90;;;;;;4975269;28;20415;-82
2022/08/16 06:22:10;;;;;;;0.00;0.00;;;20.40;99.90;;;;;;4973693;28;20054;-83
2022/08/16 06:24:57;;;;;;;0.00;0.00;;;20.50;99.90;;;;;;4967853;28;20495;-83
2022/08/16 06:27:26;;;;;;;0.00;0.00;;;20.50;99.90;;;;;;4973192;28;20101;-83
2022/08/16 06:30:07;;;;;;;0.00;0.00;;;20.50;99.90;;;;;;4969260;28;20566;-83
2022/08/16 06:32:35;;;;;;;0.00;0.00;;;20.60;99.90;;;;;;4967946;28;20519;-82
2022/08/16 06:35:14;;;;;;;0.00;0.00;;;20.70;99.90;;;;;;4972532;28;20042;-84
2022/08/16 06:37:41;;;;;;;0.00;0.00;;;20.80;99.90;;;;;;4970197;28;20046;-83
2022/08/16 06:40:17;;;;;;;0.00;0.00;;;20.80;99.90;;;;;;4967720;28;20057;-83
2022/08/16 06:42:44;;;;;;;0.00;0.00;;;20.90;99.90;;;;;;4970179;28;20031;-84
2022/08/16 06:45:14;;;;;;;0.00;0.00;;;21.00;99.90;;;;;;4964576;28;20524;-83
2022/08/16 06:47:42;;;;;;;0.00;0.00;;;21.00;99.90;;;;;;4972359;28;20051;-83
2022/08/16 06:50:22;;;;;;;0.00;0.00;;;21.10;99.90;;;;;;4968281;28;20043;-83
2022/08/16 06:52:56;;;;;;;0.00;0.00;;;21.20;99.90;;;;;;4969851;28;20049;-82
2022/08/16 06:55:35;;;;;;;0.00;0.00;;;21.30;99.90;;;;;;4971100;28;20047;-82
2022/08/16 06:58:04;;;;;;;0.00;0.00;;;21.40;99.90;;;;;;4968901;28;20102;-83
2022/08/16 07:00:47;;;;;;;0.00;0.00;;;21.30;99.90;;;;;;4971301;28;20046;-83
2022/08/16 07:03:17;;;;;;;0.00;0.00;;;21.40;99.90;;;;;;4970923;28;20055;-83
2022/08/16 07:05:58;;;;;;;0.00;0.00;;;21.50;99.90;;;;;;4982683;28;20066;-82
2022/08/16 07:08:26;;;;;;;0.00;0.00;;;21.60;99.90;;;;;;4968886;28;20235;-82
2022/08/16 07:10:54;;;;;;;0.00;0.00;;;21.70;99.90;;;;;;4970767;28;20051;-82
2022/08/16 07:13:21;;;;;;;0.00;0.00;;;;;;;;;;4969627;28;20042;-83
2022/08/16 07:16:13;;;;;;;0.00;0.00;;;22.10;99.90;;;;;;4967117;28;20039;-86
2022/08/16 07:18:43;;;;;;;0.00;0.00;;;22.20;99.90;;;;;;4969768;28;20050;-83
2022/08/16 07:21:28;;;;;;;0.00;0.00;;;22.40;99.90;;;;;;4964405;28;20524;-83
2022/08/16 07:24:12;;;;;;;0.00;0.00;;;22.40;99.90;;;;;;4963691;28;20051;-83
2022/08/16 07:26:56;;;;;;;0.00;0.00;;;22.40;99.90;;;;;;4967766;28;20043;-83
2022/08/16 07:29:23;;;;;;;0.00;0.00;;;22.50;99.90;;;;;;4970877;28;20419;-83
2022/08/16 07:31:52;;;;;;;0.00;0.00;;;22.60;99.90;;;;;;4969399;28;20525;-82
2022/08/16 07:34:21;;;;;;;0.00;0.00;;;22.60;99.90;;;;;;4967344;28;20125;-83
2022/08/16 07:37:05;;;;;;;0.00;0.00;;;22.60;99.90;;;;;;4968807;28;20057;-82
2022/08/16 07:39:32;;;;;;;0.00;0.00;;;;;;;;;;4972641;28;20507;-83
2022/08/16 07:42:00;;;;;;;0.00;0.00;;;22.70;99.90;;;;;;4966384;28;20078;-83
2022/08/16 07:44:27;;;;;;;0.00;0.00;;;22.60;99.90;;;;;;4968158;28;20070;-83
2022/08/16 07:47:14;;;;;;;0.00;0.00;;;22.60;99.90;;;;;;4965763;28;20049;-85
2022/08/16 07:49:42;;;;;;;0.00;0.00;;;22.70;99.90;;;;;;4971897;28;20051;-83
2022/08/16 07:52:24;;;;;;;0.00;0.00;;;22.80;99.90;;;;;;4975682;28;20107;-83
2022/08/16 07:54:56;;;;;;;0.00;0.00;;;22.70;99.90;;;;;;4975114;28;20061;-83
2022/08/16 07:57:23;;;;;;;0.00;0.00;;;22.70;99.90;;;;;;4974382;28;20043;-83
2022/08/16 07:59:50;;;;;;;0.00;0.00;;;22.70;99.90;;;;;;4971278;28;20071;-83
2022/08/16 08:02:18;;;;;;;0.00;0.00;;;22.80;99.90;;;;;;4974293;28;20043;-84
2022/08/16 08:04:48;;;;;;;0.00;0.00;;;22.90;99.90;;;;;;4973699;28;20051;-83
2022/08/16 08:07:15;;;;;;;0.00;0.00;;;22.90;99.90;;;;;;4972514;28;20558;-83
2022/08/16 08:09:42;;;;;;;0.00;0.00;;;23.00;99.90;;;;;;4975394;28;20113;-83
2022/08/16 08:12:10;;;;;;;0.00;0.00;;;23.00;99.90;;;;;;4977564;28;20077;-85
2022/08/16 08:14:57;;;;;;;0.00;0.00;;;23.20;99.90;;;;;;4975474;28;20050;-84
2022/08/16 08:17:24;;;;;;;0.00;0.00;;;23.30;99.90;;;;;;4974619;28;20034;-84
2022/08/16 08:20:12;;;;;;;0.00;0.00;;;23.40;99.90;;;;;;4971374;28;20450;-83
2022/08/16 08:22:53;;;;;;;0.00;0.00;;;23.40;99.90;;;;;;4974556;28;20055;-84
2022/08/16 08:25:28;;;;;;;0.00;0.00;;;23.50;99.90;;;;;;4974653;28;20039;-84
2022/08/16 08:28:15;;;;;;;0.00;0.00;;;23.60;99.90;;;;;;4973082;28;20065;-82
2022/08/16 08:30:43;;;;;;;0.00;0.00;;;23.50;99.90;;;;;;4972826;28;20050;-83
2022/08/16 08:33:27;;;;;;;0.00;0.00;;;23.50;99.90;;;;;;4972243;28;20523;-83
2022/08/16 08:35:57;;;;;;;0.00;0.00;;;23.50;99.90;;;;;;4988355;28;20050;-82
2022/08/16 08:38:28;;;;;;;0.00;0.00;;;23.50;99.90;;;;;;4972527;28;20047;-84
2022/08/16 08:41:14;;;;;;;0.00;0.00;;;23.40;99.90;;;;;;4971110;28;20039;-86
2022/08/16 08:43:41;;;;;;;0.00;0.00;;;23.40;99.90;;;;;;4971702;28;20047;-83
2022/08/16 08:46:08;;;;;;;0.00;0.00;;;23.50;99.90;;;;;;4968231;28;20055;-84
2022/08/16 08:48:47;;;;;;;0.00;0.00;;;23.50;99.90;;;;;;4972255;28;20047;-83
2022/08/16 08:51:29;;;;;;;0.00;0.00;;;23.50;99.90;;;;;;4969203;28;20047;-84
2022/08/16 08:54:03;;;;;;;0.00;0.00;;;23.50;99.90;;;;;;4971188;28;20034;-83
2022/08/16 08:56:36;;;;;;;0.00;0.00;;;23.50;99.90;;;;;;4970855;28;20101;-85
2022/08/16 08:59:03;;;;;;;0.00;0.00;;;23.50;99.90;;;;;;4968388;28;20418;-85
2022/08/16 09:01:40;;;;;;;0.00;0.00;;;23.70;99.90;;;;;;4973359;28;20055;-82
2022/08/16 09:04:08;;;;;;;0.00;0.00;;;23.80;99.90;;;;;;4968307;28;20051;-81
2022/08/16 09:06:42;;;;;;;0.00;0.00;;;23.80;99.90;;;;;;4970714;28;20049;-83
2022/08/16 09:09:10;;;;;;;0.00;0.00;;;23.90;99.90;;;;;;4974764;28;20054;-82
2022/08/16 09:11:43;;;;;;;0.00;0.00;;;24.00;99.90;;;;;;4972898;28;20050;-83
2022/08/16 09:14:15;;;;;;;0.00;0.00;;;24.10;99.70;;;;;;4971353;28;20062;-82
2022/08/16 09:16:51;;;;;;;0.00;0.00;;;24.10;99.00;;;;;;4969980;28;20117;-82
2022/08/16 09:19:31;;;;;;;0.00;0.00;;;24.20;99.00;;;;;;4970393;28;20047;-82
2022/08/16 09:22:02;;;;;;;0.00;0.00;;;24.20;98.70;;;;;;4965572;28;20050;-82
2022/08/16 09:24:30;;;;;;;0.00;0.00;;;24.30;99.00;;;;;;4956058;28;20256;-82
2022/08/16 09:27:17;;;;;;;0.00;0.00;;;24.20;99.60;;;;;;4969403;28;20047;-81
2022/08/16 09:29:44;;;;;;;0.00;0.00;;;24.30;99.10;;;;;;4973013;28;20046;-85
2022/08/16 09:32:12;;;;;;;0.00;0.00;;;24.30;99.30;;;;;;4970505;28;20054;-83
2022/08/16 09:34:57;;;;;;;0.00;0.00;;;24.30;98.30;;;;;;4971679;28;20554;-82
2022/08/16 09:37:26;;;;;;;0.00;0.00;;;24.40;98.30;;;;;;4970344;28;20050;-82
2022/08/16 09:39:55;;;;;;;0.00;0.00;;;25.00;98.00;;;;;;4969707;28;20043;-81
2022/08/16 09:42:26;;;;;;;0.00;0.00;;;24.70;97.90;;;;;;4969942;28;20054;-85
2022/08/16 09:44:53;;;;;;;0.00;0.00;;;24.60;97.90;;;;;;4966684;28;20503;-83
2022/08/16 09:47:39;;;;;;;0.00;0.00;;;24.70;98.10;;;;;;4970304;28;20043;-83
2022/08/16 09:50:25;;;;;;;0.00;0.00;;;24.80;97.40;;;;;;4982954;28;20047;-83
2022/08/16 09:53:04;;;;;;;;;;;24.90;97.80;;;;;;4969244;28;20055;-83
2022/08/16 09:55:32;;;;;;;0.00;0.00;;;25.00;97.40;;;;;;4969495;28;19921;-83
2022/08/16 09:58:10;;;;;;;0.00;0.00;;;25.20;97.90;;;;;;4972278;28;20495;-83
2022/08/16 10:00:57;;;;;;;0.00;0.00;;;25.10;97.80;;;;;;4968317;28;20051;-83
2022/08/16 10:03:26;;;;;;;;;;;25.10;96.00;;;;;;4969476;28;20039;-83
2022/08/16 10:05:56;;;;;;;;;;;25.10;96.40;;;;;;4967830;28;19961;-83
2022/08/16 10:08:25;;;;;;;0.00;0.00;;;25.10;96.00;;;;;;4971578;28;19921;-83
2022/08/16 10:13:40;;;;;;;0.00;0.00;;;25.10;93.80;;;;;;4969405;28;20035;-83
2022/08/16 10:16:07;;;;;;;0.00;0.00;;;25.10;94.70;;;;;;4972517;28;20050;-84
2022/08/16 10:18:35;;;;;;;0.00;0.00;;;25.20;95.80;;;;;;4971389;28;20047;-83
2022/08/16 10:21:22;;;;;;;0.00;0.00;;;25.30;95.70;;;;;;4968113;28;20541;-83
2022/08/16 10:23:53;;;;;;;0.00;0.00;;;25.40;94.10;;;;;;4964627;28;20042;-84
2022/08/16 10:26:23;;;;;;;0.00;0.00;;;25.50;93.70;;;;;;4969393;28;20049;-84
2022/08/16 10:29:10;;;;;;;0.00;0.00;;;25.50;94.20;;;;;;4978014;28;20067;-85
2022/08/16 10:31:37;;;;;;;0.00;0.00;;;25.60;94.90;;;;;;4963715;28;20110;-83
2022/08/16 10:34:12;;;;;;;0.00;0.00;;;25.70;94.80;;;;;;4962803;28;20601;-84
2022/08/16 10:36:58;;;;;;;0.00;0.00;;;25.70;92.60;;;;;;4963108;28;20042;-83
2022/08/16 10:39:27;;;;;;;0.00;0.00;;;25.70;93.50;;;;;;4968802;28;20042;-85
2022/08/16 10:42:08;;;;;;;0.00;0.00;;;25.70;93.90;;;;;;4965494;28;20726;-86
2022/08/16 10:44:35;;;;;;;0.00;0.00;;;;;;;;;;4963887;28;20109;-85
2022/08/16 10:47:02;;;;;;;0.00;0.00;;;25.80;92.40;;;;;;4959905;28;20051;-83
2022/08/16 10:49:31;;;;;;;0.00;0.00;;;25.80;92.80;;;;;;4968360;28;20047;-81
2022/08/16 10:51:58;;;;;;;0.00;0.00;;;25.90;93.10;;;;;;4963294;28;20499;-83
2022/08/16 10:54:44;;;;;;;0.00;0.00;;;25.90;92.20;;;;;;4949378;28;20124;-85
2022/08/16 10:57:31;;;;;;;0.00;0.00;;;26.00;91.70;;;;;;4960405;28;20679;-85
2022/08/16 10:59:59;;;;;;;0.00;0.00;;;26.00;91.20;;;;;;4965184;28;20050;-85
2022/08/16 11:02:27;;;;;;;0.00;0.00;;;26.00;91.10;;;;;;4967378;28;20049;-84
2022/08/16 11:05:15;;;;;;;0.00;0.00;;;26.10;92.50;;;;;;4961494;28;20581;-85
2022/08/16 11:07:46;;;;;;;0.00;0.00;;;26.10;92.50;;;;;;4966124;28;20547;-85
2022/08/16 11:10:23;;;;;;;0.00;0.00;;;26.10;91.80;;;;;;4968569;28;20074;-85
2022/08/16 11:15:43;;;;;;;0.00;0.00;;;26.20;92.40;;;;;;4995000;23;20039;-83
2022/08/16 11:18:21;;;;;;;0.00;0.00;;;26.30;91.60;;;;;;4957291;28;20083;-81
2022/08/16 11:21:08;;;;;;;0.00;0.00;;;26.20;91.40;;;;;;4972737;28;20107;-83
2022/08/16 11:23:55;;;;;;;0.00;0.00;;;26.30;91.60;;;;;;4977668;28;20380;-83
2022/08/16 11:26:26;;;;;;;0.00;0.00;;;26.50;92.50;;;;;;4968481;28;20039;-83
2022/08/16 11:28:55;;;;;;;0.00;0.00;;;26.70;90.10;;;;;;4970997;28;20051;-83
2022/08/16 11:31:42;;;;;;;0.00;0.00;;;26.70;91.10;;;;;;4967091;28;20142;-83
2022/08/16 11:34:19;;;;;;;0.00;0.00;;;26.70;90.00;;;;;;4958487;28;21414;-84
2022/08/16 11:36:50;;;;;;;0.00;0.00;;;26.80;92.00;;;;;;4977848;28;20265;-83
2022/08/16 11:39:26;;;;;;;0.00;0.00;;;26.70;89.90;;;;;;4967792;28;20455;-84
2022/08/16 11:41:55;;;;;;;0.00;0.00;;;26.80;90.30;;;;;;4965486;28;20118;-83
2022/08/16 11:44:23;;;;;;;0.00;0.00;;;26.90;90.10;;;;;;4982054;28;20035;-84
2022/08/16 11:47:09;;;;;;;0.00;0.00;;;27.00;89.80;;;;;;4963826;28;20107;-83
2022/08/16 11:49:36;;;;;;;0.00;0.00;;;27.30;89.60;;;;;;4963934;28;20373;-83
2022/08/16 11:52:03;;;;;;;0.00;0.00;;;27.10;90.70;;;;;;4966565;28;20039;-81
2022/08/16 11:54:30;;;;;;;0.00;0.00;;;27.00;89.80;;;;;;4980229;28;20039;-82
2022/08/16 11:57:03;;;;;;;0.00;0.00;;;27.00;89.70;;;;;;4966009;29;20026;-82
2022/08/16 11:59:36;;;;;;;0.00;0.00;;;27.00;88.20;;;;;;4963356;28;20059;-82
2022/08/16 12:02:07;;;;;;;0.00;0.00;;;27.10;89.40;;;;;;4968865;28;20114;-83
2022/08/16 12:04:54;;;;;;;0.00;0.00;;;27.20;90.00;;;;;;4962458;28;20057;-83
2022/08/16 12:07:22;;;;;;;0.00;0.00;;;27.20;86.50;;;;;;4965165;28;20075;-82
2022/08/16 12:09:50;;;;;;;0.00;0.00;;;28.10;86.70;;;;;;4968051;28;20051;-81
2022/08/16 12:12:21;;;;;;;0.00;0.00;;;27.30;88.20;;;;;;4969534;28;20050;-83
2022/08/16 12:14:49;;;;;;;0.00;0.00;;;;;;;;;;4967327;28;20058;-83
2022/08/16 12:17:26;;;;;;;0.00;0.00;;;27.60;87.90;;;;;;4973823;28;20694;-84
2022/08/16 12:19:57;;;;;;;0.00;0.00;;;27.60;87.40;;;;;;4965373;28;20058;-81
2022/08/16 12:22:24;;;;;;;0.00;0.00;;;27.80;87.80;;;;;;4968648;28;20055;-82
2022/08/16 12:24:52;;;;;;;0.00;0.00;;;27.60;83.00;;;;;;4967120;28;20078;-83
2022/08/16 12:27:22;;;;;;;0.00;0.00;;;27.70;83.90;;;;;;4968870;28;20031;-80
2022/08/16 12:29:50;;;;;;;0.00;0.00;;;27.70;84.10;;;;;;4964752;28;20047;-84
2022/08/16 12:32:19;;;;;;;0.00;0.00;;;27.70;86.60;;;;;;4965877;28;20102;-80
2022/08/16 12:35:07;;;;;;;0.00;0.00;;;27.90;85.30;;;;;;4960921;28;20047;-83
2022/08/16 12:37:35;;;;;;;0.00;0.00;;;28.00;86.50;;;;;;4962138;28;20417;-84
2022/08/16 12:40:06;;;;;;;0.00;0.00;;;28.10;84.70;;;;;;4965362;28;20043;-80
2022/08/16 12:42:53;;;;;;;0.00;0.00;;;27.80;80.70;;;;;;4966574;28;20075;-82
2022/08/16 12:45:27;;;;;;;0.00;0.00;;;27.80;82.40;;;;;;4972113;29;20047;-83
2022/08/16 12:51:01;;;;;;;0.00;0.00;;;27.90;83.70;;;;;;4969770;28;20043;-81
2022/08/16 12:53:29;;;;;;;0.00;0.00;;;;;;;;;;4964958;28;20068;-82
2022/08/16 12:55:58;;;;;;;0.00;0.00;;;;;;;;;;4968743;28;20051;-81
2022/08/16 12:58:27;;;;;;;0.00;0.00;;;28.00;81.70;;;;;;4967784;28;20042;-83
2022/08/16 13:01:13;;;;;;;0.00;0.00;;;28.60;81.40;;;;;;4961310;28;20115;-82
2022/08/16 13:03:42;;;;;;;0.00;0.00;;;28.10;81.90;;;;;;4964131;28;20062;-82
2022/08/16 13:06:10;;;;;;;0.00;0.00;;;28.20;80.80;;;;;;4949370;28;20075;-83
2022/08/16 13:08:38;;;;;;;0.00;0.00;;;29.20;82.90;;;;;;4962794;28;20455;-81
2022/08/16 13:11:06;;;;;;;0.00;0.00;;;28.40;80.70;;;;;;4957491;28;20047;-80
2022/08/16 13:13:35;;;;;;;0.00;0.00;;;28.30;82.40;;;;;;4966796;28;20072;-82
2022/08/16 13:16:04;;;;;;;0.00;0.00;;;28.60;83.20;;;;;;4957502;28;20059;-83
2022/08/16 13:18:41;;;;;;;0.00;0.00;;;28.40;81.80;;;;;;4981532;28;20039;-83
2022/08/16 13:21:08;;;;;;;0.00;0.00;;;28.50;80.90;;;;;;4965318;28;20051;-83
2022/08/16 13:23:36;;;;;;;0.00;0.00;;;28.70;80.90;;;;;;4965881;28;20359;-82
2022/08/16 13:26:11;;;;;;;0.00;0.00;;;28.60;81.90;;;;;;4957233;28;20047;-83
2022/08/16 13:28:44;;;;;;;0.00;0.00;;;28.90;81.70;;;;;;4958357;28;20094;-82
2022/08/16 13:31:14;;;;;;;0.00;0.00;;;29.00;81.90;;;;;;4957062;28;20079;-82
2022/08/16 13:33:43;;;;;;;0.00;0.00;;;29.80;80.80;;;;;;4963541;28;20055;-82
2022/08/16 13:36:13;;;;;;;0.00;0.00;;;28.80;79.30;;;;;;4979517;28;20142;-85
2022/08/16 13:39:00;;;;;;;0.00;0.00;;;28.60;79.80;;;;;;4961325;28;20419;-83
2022/08/16 13:41:27;;;;;;;0.00;0.00;;;28.50;80.00;;;;;;4959343;28;20039;-85